Etusivu
METAR-TAF:

METAR-TAF

Lentoasemat :

Ljungbyhed, Ruotsi

Leveyspiiri: 56-04N, Pituuspiiri: 013-12E, korkeus merenpinnasta: 43 m

Tämänhetkinen sää

Tämä raportti tehtiin 42 minuuttia sitten, kello 19.50 UTC
Tuuli 5 kn lännestä
Lämpötila 16°C
Kosteus 100%
Ilmanpaine 1014 hPa
Näkyvyys 10 km tai enemmän

METAR: ESTL 221950Z AUTO 28005KT 9999 BKN047/// 16/16 Q1014

Aika: 22:32 (20:32 UTC)


TAF: puuttuu

Säähavainnot ja -ennusteet yli 4000 lentoasemalta (METAR- ja TAF-raportit).

Käytössä olevat sääasemat on merkitty karttaan keltaisilla ja punaisilla pisteillä.

Aseta hiiri pisteen päälle nähdäksesi sääaseman nimen.

Klikkaa sitten nähdäksesi säähavainnot ja -ennusteet.

Kartan vaihtaminen: klikkaa mustalla rastilla varustettuja vihreitä pisteitä, niin voit zoomata sisään; viivalla varustettua vihreää pistettä, niin voit zoomata ulos tai vihreitä nuolia, niin pääset viereisille kartoille.


METAR-TAF: